createdAt,value
2019-04-04T00:02:24.920Z,87.10
2019-04-04T00:05:38.415Z,86.94
2019-04-04T00:08:51.888Z,87.06
2019-04-04T00:12:06.061Z,86.91
2019-04-04T00:15:20.885Z,87.19
2019-04-04T00:18:34.702Z,87.37
2019-04-04T00:21:48.489Z,87.28
2019-04-04T00:25:02.177Z,87.12
2019-04-04T00:28:15.629Z,87.35
2019-04-04T00:31:29.221Z,87.39
2019-04-04T00:34:42.708Z,87.06
2019-04-04T00:37:56.160Z,86.75
2019-04-04T00:41:11.037Z,86.74
2019-04-04T00:44:25.456Z,86.92
2019-04-04T00:47:39.117Z,86.87
2019-04-04T00:50:52.567Z,86.93
2019-04-04T00:54:06.054Z,86.87
2019-04-04T00:57:19.553Z,87.11
2019-04-04T01:00:33.208Z,87.25
2019-04-04T01:03:46.690Z,87.23
2019-04-04T01:07:00.450Z,87.19
2019-04-04T01:10:14.140Z,87.18
2019-04-04T01:13:27.822Z,87.14
2019-04-04T01:16:41.394Z,87.39
2019-04-04T01:19:54.877Z,87.57
2019-04-04T01:23:08.557Z,87.08
2019-04-04T01:26:22.026Z,87.11
2019-04-04T01:29:35.507Z,87.18
2019-04-04T01:32:49.095Z,87.12
2019-04-04T01:36:02.763Z,87.17
2019-04-04T01:39:16.445Z,86.65
2019-04-04T01:42:29.901Z,87.04
2019-04-04T01:45:44.193Z,87.13
2019-04-04T01:48:58.758Z,86.76
2019-04-04T01:52:12.514Z,86.83
2019-04-04T01:55:25.999Z,86.87
2019-04-04T01:58:41.683Z,86.82
2019-04-04T02:01:55.397Z,86.94
2019-04-04T02:05:09.174Z,86.93
2019-04-04T02:08:22.664Z,87.21
2019-04-04T02:11:37.621Z,87.04
2019-04-04T02:14:51.499Z,87.20
2019-04-04T02:18:05.057Z,87.25
2019-04-04T02:21:18.542Z,87.38
2019-04-04T02:24:32.432Z,87.28
2019-04-04T02:27:46.096Z,87.24
2019-04-04T02:30:59.969Z,87.60
2019-04-04T02:34:13.546Z,87.63
2019-04-04T02:37:27.642Z,87.40
2019-04-04T02:40:42.147Z,87.10
2019-04-04T02:43:59.415Z,87.00
2019-04-04T02:47:11.356Z,86.73
2019-04-04T02:50:24.832Z,86.80
2019-04-04T02:53:38.287Z,87.10
2019-04-04T02:56:52.161Z,86.87
2019-04-04T03:00:07.005Z,87.02
2019-04-04T03:03:20.915Z,86.90
2019-04-04T03:06:34.605Z,87.77
2019-04-04T03:09:48.190Z,88.25
2019-04-04T03:13:01.678Z,88.58
2019-04-04T03:16:15.335Z,88.32
2019-04-04T03:19:28.803Z,88.55
2019-04-04T03:22:42.289Z,88.50
2019-04-04T03:25:55.732Z,88.31
2019-04-04T03:29:10.633Z,88.24
2019-04-04T03:32:24.475Z,88.13
2019-04-04T03:35:38.512Z,87.94
2019-04-04T03:38:51.961Z,87.85
2019-04-04T03:42:08.050Z,87.96
2019-04-04T03:45:23.894Z,87.98
2019-04-04T03:48:36.563Z,87.96
2019-04-04T03:51:50.286Z,87.76
2019-04-04T03:55:04.845Z,87.54
2019-04-04T03:58:18.519Z,87.54
2019-04-04T04:01:32.258Z,87.61
2019-04-04T04:04:45.734Z,87.65
2019-04-04T04:07:59.493Z,87.50
2019-04-04T04:11:12.968Z,87.60
2019-04-04T04:14:26.424Z,87.84
2019-04-04T04:17:39.897Z,88.27
2019-04-04T04:20:53.369Z,88.35
2019-04-04T04:24:06.840Z,88.35
2019-04-04T04:27:20.351Z,88.45
2019-04-04T04:30:33.778Z,88.10
2019-04-04T04:33:47.247Z,87.73
2019-04-04T04:37:01.016Z,87.42
2019-04-04T04:40:15.425Z,87.34
2019-04-04T04:43:32.196Z,87.51
2019-04-04T04:46:49.910Z,87.50
2019-04-04T04:50:00.495Z,87.57
2019-04-04T04:53:14.142Z,87.63
2019-04-04T04:56:30.970Z,87.60
2019-04-04T04:59:44.561Z,87.42
2019-04-04T05:02:58.528Z,87.30
2019-04-04T05:06:11.999Z,87.26
2019-04-04T05:09:25.463Z,87.13
2019-04-04T05:12:38.938Z,87.20
2019-04-04T05:15:52.407Z,87.26
2019-04-04T05:19:06.207Z,87.26
2019-04-04T05:22:19.671Z,87.35
2019-04-04T05:25:33.368Z,87.36
2019-04-04T05:28:46.842Z,87.34
2019-04-04T05:32:00.319Z,87.37
2019-04-04T05:35:15.213Z,87.46
2019-04-04T05:38:29.190Z,87.47
2019-04-04T05:41:42.892Z,87.37
2019-04-04T05:44:56.389Z,86.54
2019-04-04T05:48:09.871Z,87.41
2019-04-04T05:51:23.699Z,87.83
2019-04-04T05:54:39.097Z,87.42
2019-04-04T05:57:52.545Z,87.44
2019-04-04T06:01:07.478Z,87.61
2019-04-04T06:04:21.611Z,86.37
2019-04-04T06:07:36.551Z,86.14
2019-04-04T06:10:50.940Z,86.91
2019-04-04T06:14:04.645Z,86.94
2019-04-04T06:17:18.979Z,86.65
2019-04-04T06:20:32.434Z,86.61
2019-04-04T06:23:45.957Z,86.73
2019-04-04T06:26:59.665Z,85.39
2019-04-04T06:30:13.449Z,84.91
2019-04-04T06:33:27.303Z,86.33
2019-04-04T06:36:41.077Z,86.15
2019-04-04T06:39:58.575Z,85.78
2019-04-04T06:43:11.727Z,85.80
2019-04-04T06:46:25.707Z,85.89
2019-04-04T06:49:40.020Z,85.92
2019-04-04T06:52:56.404Z,85.51
2019-04-04T06:56:09.395Z,84.89
2019-04-04T06:59:23.458Z,85.92
2019-04-04T07:02:37.171Z,86.45
2019-04-04T07:05:50.926Z,86.02
2019-04-04T07:09:06.623Z,86.48
2019-04-04T07:12:24.210Z,86.03
2019-04-04T07:15:46.117Z,86.58
2019-04-04T07:18:51.843Z,86.33
2019-04-04T07:22:05.438Z,86.03
2019-04-04T07:25:19.010Z,86.44
2019-04-04T07:28:32.902Z,87.32
2019-04-04T07:31:47.240Z,86.90
2019-04-04T07:35:00.849Z,86.86
2019-04-04T07:38:14.423Z,86.12
2019-04-04T07:41:28.170Z,86.33
2019-04-04T07:44:41.932Z,85.66
2019-04-04T07:47:55.453Z,85.67
2019-04-04T07:51:08.930Z,86.47
2019-04-04T07:54:22.403Z,85.80
2019-04-04T07:57:36.016Z,85.53
2019-04-04T08:00:49.587Z,85.98
2019-04-04T08:04:03.160Z,85.55
2019-04-04T08:07:16.724Z,84.87
2019-04-04T08:10:30.298Z,85.68
2019-04-04T08:13:43.876Z,85.74
2019-04-04T08:16:57.348Z,86.54
2019-04-04T08:20:11.335Z,87.06
2019-04-04T08:23:25.213Z,86.10
2019-04-04T08:26:38.978Z,85.99
2019-04-04T08:29:52.561Z,85.40
2019-04-04T08:33:06.397Z,85.38
2019-04-04T08:36:19.909Z,85.43
2019-04-04T08:39:33.712Z,85.94
2019-04-04T08:42:47.187Z,86.47
2019-04-04T08:46:00.877Z,85.36
2019-04-04T08:49:14.914Z,85.50
2019-04-04T08:52:30.750Z,84.74
2019-04-04T08:55:46.312Z,85.71
2019-04-04T08:59:01.849Z,85.74
2019-04-04T09:02:16.753Z,85.76
2019-04-04T09:05:32.356Z,85.63
2019-04-04T09:08:47.423Z,84.97
2019-04-04T09:12:02.526Z,84.96
2019-04-04T09:15:17.721Z,86.52
2019-04-04T09:18:32.460Z,85.51
2019-04-04T09:21:47.728Z,85.63
2019-04-04T09:25:04.169Z,85.89
2019-04-04T09:28:19.125Z,86.65
2019-04-04T09:31:34.512Z,86.65
2019-04-04T09:34:53.180Z,84.74
2019-04-04T09:38:09.385Z,85.98
2019-04-04T09:41:24.700Z,86.64
2019-04-04T09:44:41.414Z,85.84
2019-04-04T09:47:56.727Z,83.82
2019-04-04T09:51:12.403Z,86.13
2019-04-04T09:54:29.705Z,86.06
2019-04-04T09:57:45.809Z,85.05
2019-04-04T10:01:00.807Z,85.13
2019-04-04T10:04:17.603Z,84.76
2019-04-04T10:07:33.525Z,84.62
2019-04-04T10:10:50.392Z,84.42
2019-04-04T10:14:09.341Z,84.33
2019-04-04T10:17:25.065Z,84.71
2019-04-04T10:20:40.984Z,84.97
2019-04-04T10:23:58.229Z,85.12
2019-04-04T10:27:13.783Z,84.85
2019-04-04T10:30:29.232Z,84.90
2019-04-04T10:33:45.740Z,83.40
2019-04-04T10:37:00.945Z,84.84
2019-04-04T10:40:16.695Z,84.92
2019-04-04T10:43:33.117Z,84.78
2019-04-04T10:46:48.910Z,84.03
2019-04-04T10:50:05.648Z,84.20
2019-04-04T10:53:19.166Z,84.89
2019-04-04T10:56:32.906Z,83.75
2019-04-04T10:59:46.694Z,83.35
2019-04-04T11:03:02.277Z,83.20
2019-04-04T11:06:23.339Z,82.77
2019-04-04T11:09:42.177Z,82.93
2019-04-04T11:12:55.286Z,82.15
2019-04-04T11:16:09.195Z,82.32
2019-04-04T11:19:31.073Z,82.64
2019-04-04T11:22:39.944Z,83.37
2019-04-04T11:25:53.959Z,82.23
2019-04-04T11:29:07.444Z,83.06
2019-04-04T11:32:21.032Z,81.98
2019-04-04T11:35:34.526Z,82.49
2019-04-04T11:38:48.796Z,81.93
2019-04-04T11:42:02.786Z,81.43
2019-04-04T11:45:16.623Z,82.39
2019-04-04T11:48:30.627Z,83.50
2019-04-04T11:52:03.876Z,83.67
2019-04-04T11:55:17.719Z,81.26
2019-04-04T11:58:32.129Z,81.78
2019-04-04T12:01:46.558Z,82.04
2019-04-04T12:05:00.606Z,82.76
2019-04-04T12:08:14.133Z,83.01
2019-04-04T12:11:27.973Z,81.37
2019-04-04T12:14:42.045Z,82.63
2019-04-04T12:17:55.523Z,82.34
2019-04-04T12:21:09.359Z,82.50
2019-04-04T12:24:23.004Z,82.88
2019-04-04T12:27:36.529Z,82.74
2019-04-04T12:30:50.103Z,83.29
2019-04-04T12:34:04.007Z,82.63
2019-04-04T12:37:19.011Z,82.53
2019-04-04T12:40:36.454Z,82.89
2019-04-04T12:43:53.371Z,82.57
2019-04-04T12:47:08.774Z,82.19
2019-04-04T12:50:25.018Z,83.26
2019-04-04T12:53:40.337Z,83.94
2019-04-04T12:56:56.136Z,83.73
2019-04-04T13:00:12.889Z,83.58
2019-04-04T13:03:28.202Z,83.49
2019-04-04T13:06:44.760Z,83.52
2019-04-04T13:10:10.866Z,84.24
2019-04-04T13:13:18.220Z,83.74
2019-04-04T13:16:33.015Z,83.26
2019-04-04T13:19:50.833Z,83.36
2019-04-04T13:23:05.766Z,83.84
2019-04-04T13:26:22.111Z,83.87
2019-04-04T13:29:38.040Z,84.64
2019-04-04T13:32:54.031Z,83.48
2019-04-04T13:36:10.411Z,86.04
2019-04-04T13:39:25.556Z,83.55
2019-04-04T13:42:40.934Z,82.91
2019-04-04T13:45:55.812Z,82.05
2019-04-04T13:49:13.983Z,81.03
2019-04-04T13:52:32.515Z,80.57
2019-04-04T13:55:48.136Z,81.96
2019-04-04T13:59:05.850Z,81.62
2019-04-04T14:02:19.984Z,79.69
2019-04-04T14:05:33.556Z,79.80
2019-04-04T14:08:47.176Z,79.33
2019-04-04T14:12:00.781Z,79.00
2019-04-04T14:15:14.771Z,79.17
2019-04-04T14:18:39.076Z,78.53
2019-04-04T14:21:44.181Z,80.58
2019-04-04T14:24:57.663Z,81.73
2019-04-04T14:28:11.419Z,81.71
2019-04-04T14:31:25.047Z,81.53
2019-04-04T14:34:38.542Z,79.66
2019-04-04T14:37:54.485Z,80.17
2019-04-04T14:41:11.396Z,81.80
2019-04-04T14:44:23.676Z,79.93
2019-04-04T14:47:37.176Z,78.94
2019-04-04T14:50:50.646Z,79.34
2019-04-04T14:54:04.405Z,77.04
2019-04-04T14:57:17.907Z,75.88
2019-04-04T15:00:31.349Z,78.58
2019-04-04T15:03:44.824Z,79.72
2019-04-04T15:06:58.551Z,78.99
2019-04-04T15:10:12.737Z,79.25
2019-04-04T15:13:26.419Z,75.63
2019-04-04T15:16:39.973Z,76.73
2019-04-04T15:19:53.561Z,77.35
2019-04-04T15:23:07.395Z,78.72
2019-04-04T15:26:20.869Z,79.81
2019-04-04T15:29:34.711Z,79.71
2019-04-04T15:32:48.192Z,79.82
2019-04-04T15:36:01.880Z,81.09
2019-04-04T15:39:16.052Z,81.45
2019-04-04T15:42:29.940Z,81.02
2019-04-04T15:45:43.515Z,80.31
2019-04-04T15:48:57.034Z,80.97
2019-04-04T15:52:10.517Z,81.38
2019-04-04T15:55:23.997Z,80.70
2019-04-04T15:58:37.764Z,81.64
2019-04-04T16:01:51.378Z,81.85
2019-04-04T16:05:05.418Z,81.54
2019-04-04T16:08:18.891Z,82.30
2019-04-04T16:11:32.465Z,82.57
2019-04-04T16:14:46.056Z,81.75
2019-04-04T16:18:01.310Z,82.18
2019-04-04T16:21:14.965Z,80.33
2019-04-04T16:24:29.315Z,80.56
2019-04-04T16:27:43.040Z,80.13
2019-04-04T16:30:57.112Z,81.27
2019-04-04T16:34:10.873Z,81.83
2019-04-04T16:37:24.338Z,81.62
2019-04-04T16:40:37.896Z,81.76
2019-04-04T16:43:51.372Z,81.34
2019-04-04T16:47:04.976Z,81.24
2019-04-04T16:50:18.676Z,81.81
2019-04-04T16:53:32.449Z,81.81
2019-04-04T16:56:48.721Z,81.55
2019-04-04T17:00:05.825Z,81.39
2019-04-04T17:03:19.390Z,81.38
2019-04-04T17:06:33.401Z,80.51
2019-04-04T17:09:46.974Z,80.96
2019-04-04T17:13:00.630Z,81.26
2019-04-04T17:16:14.527Z,81.65
2019-04-04T17:19:28.129Z,81.28
2019-04-04T17:22:41.876Z,80.73
2019-04-04T17:25:55.639Z,80.91
2019-04-04T17:29:09.469Z,81.12
2019-04-04T17:32:22.931Z,81.08
2019-04-04T17:35:37.219Z,81.47
2019-04-04T17:38:51.016Z,81.42
2019-04-04T17:42:04.881Z,81.27
2019-04-04T17:45:19.584Z,81.64
2019-04-04T17:48:34.631Z,81.93
2019-04-04T17:51:49.135Z,81.97
2019-04-04T17:55:03.953Z,82.57
2019-04-04T17:58:18.395Z,83.31
2019-04-04T18:01:34.287Z,83.64
2019-04-04T18:04:48.450Z,83.84
2019-04-04T18:08:02.348Z,84.03
2019-04-04T18:11:15.954Z,83.93
2019-04-04T18:14:29.534Z,84.05
2019-04-04T18:17:43.027Z,84.36
2019-04-04T18:20:57.142Z,84.59
2019-04-04T18:24:10.979Z,84.57
2019-04-04T18:27:25.036Z,84.98
2019-04-04T18:30:38.504Z,84.86
2019-04-04T18:33:52.119Z,85.05
2019-04-04T18:37:05.881Z,85.23
2019-04-04T18:40:19.541Z,85.10
2019-04-04T18:43:33.480Z,85.04
2019-04-04T18:46:47.295Z,84.94
2019-04-04T18:50:01.151Z,85.18
2019-04-04T18:53:14.732Z,85.38
2019-04-04T18:56:28.203Z,85.39
2019-04-04T18:59:41.663Z,85.23
2019-04-04T19:02:55.255Z,85.14
2019-04-04T19:06:08.941Z,85.57
2019-04-04T19:09:22.955Z,85.95
2019-04-04T19:12:36.667Z,85.93
2019-04-04T19:15:50.247Z,85.96
2019-04-04T19:19:03.944Z,86.22
2019-04-04T19:22:17.425Z,86.55
2019-04-04T19:25:30.896Z,86.80
2019-04-04T19:28:44.473Z,86.90
2019-04-04T19:31:58.469Z,87.10
2019-04-04T19:35:12.427Z,87.04
2019-04-04T19:38:25.905Z,87.11
2019-04-04T19:41:39.593Z,87.19
2019-04-04T19:44:53.865Z,87.52
2019-04-04T19:48:07.543Z,87.53
2019-04-04T19:51:21.049Z,87.32
2019-04-04T19:54:34.774Z,87.17
2019-04-04T19:57:48.249Z,87.16
2019-04-04T20:01:03.735Z,87.39
2019-04-04T20:04:17.316Z,87.34
2019-04-04T20:07:30.791Z,87.19
2019-04-04T20:10:44.268Z,87.09
2019-04-04T20:13:57.800Z,87.02
2019-04-04T20:17:11.276Z,87.03
2019-04-04T20:20:25.585Z,86.82
2019-04-04T20:23:39.065Z,87.25
2019-04-04T20:26:53.097Z,87.27
2019-04-04T20:30:07.871Z,87.29
2019-04-04T20:33:21.296Z,87.55
2019-04-04T20:36:34.779Z,87.16
2019-04-04T20:39:48.504Z,87.39
2019-04-04T20:43:02.335Z,87.47
2019-04-04T20:46:15.797Z,87.45
2019-04-04T20:49:29.368Z,87.47
2019-04-04T20:52:42.851Z,87.52
2019-04-04T20:55:56.307Z,87.46
2019-04-04T20:59:09.790Z,86.94
2019-04-04T21:02:23.533Z,86.94
2019-04-04T21:05:37.269Z,86.45
2019-04-04T21:08:50.758Z,86.86
2019-04-04T21:12:04.374Z,87.12
2019-04-04T21:15:17.840Z,87.24
2019-04-04T21:18:31.304Z,87.14
2019-04-04T21:21:45.009Z,87.15
2019-04-04T21:24:58.698Z,87.19
2019-04-04T21:28:12.180Z,87.19
2019-04-04T21:31:25.890Z,87.29
2019-04-04T21:34:39.714Z,87.45
2019-04-04T21:37:53.188Z,87.10
2019-04-04T21:41:06.763Z,87.30
2019-04-04T21:44:20.500Z,87.71
2019-04-04T21:47:33.975Z,87.70
2019-04-04T21:50:47.985Z,87.64
2019-04-04T21:54:01.560Z,87.59
2019-04-04T21:57:15.140Z,87.46
2019-04-04T22:00:36.399Z,87.32
2019-04-04T22:03:49.869Z,87.40
2019-04-04T22:07:03.872Z,87.35
2019-04-04T22:10:17.550Z,87.38
2019-04-04T22:13:31.015Z,87.45
2019-04-04T22:16:44.483Z,87.55
2019-04-04T22:19:57.947Z,87.37
2019-04-04T22:23:11.411Z,87.24
2019-04-04T22:26:24.875Z,87.01
2019-04-04T22:29:38.345Z,87.01
2019-04-04T22:32:51.928Z,87.18
2019-04-04T22:36:05.933Z,87.37
2019-04-04T22:39:19.670Z,87.29
2019-04-04T22:42:33.267Z,87.15
2019-04-04T22:45:46.823Z,87.21
2019-04-04T22:49:00.393Z,87.41
2019-04-04T22:52:13.855Z,87.58
2019-04-04T22:55:27.603Z,87.56
2019-04-04T22:58:41.076Z,87.52
2019-04-04T23:01:54.544Z,87.73
2019-04-04T23:05:08.220Z,87.73
2019-04-04T23:08:21.681Z,87.63
2019-04-04T23:11:35.771Z,87.69
2019-04-04T23:14:49.353Z,87.87
2019-04-04T23:18:03.110Z,88.22
2019-04-04T23:21:16.934Z,88.31
2019-04-04T23:24:30.503Z,88.34
2019-04-04T23:27:43.962Z,87.97
2019-04-04T23:30:57.783Z,87.96
2019-04-04T23:34:11.248Z,88.01
2019-04-04T23:37:24.715Z,88.01
2019-04-04T23:40:38.462Z,87.82
2019-04-04T23:43:51.936Z,87.58
2019-04-04T23:47:05.635Z,87.51
2019-04-04T23:50:19.099Z,87.41
2019-04-04T23:53:32.622Z,87.40
2019-04-04T23:56:46.591Z,87.39
